Time;durP1;ratioP1;P1;durP2;ratioP2;P2;SDS_P1;SDS_P2;PMS_P1;PMS_P2;Temp;Humidity;BMP_temperature;BMP_pressure;BME280_temperature;BME280_humidity;BME280_pressure;Samples;Min_cycle;Max_cycle;Signal;HPM_P1;HPM_P2
2021/09/23 00:01:43;;;;;;;6.60;2.88;;;8.90;97.60;;;;;;4937933;29;20046;-89
2021/09/23 00:04:20;;;;;;;4.03;2.83;;;9.00;97.70;;;;;;4955290;29;20035;-89
2021/09/23 00:06:46;;;;;;;3.40;2.80;;;8.90;97.90;;;;;;4938063;29;20089;-89
2021/09/23 00:09:12;;;;;;;4.30;2.63;;;8.90;97.70;;;;;;4938127;29;20043;-89
2021/09/23 00:11:38;;;;;;;6.72;3.17;;;8.90;97.70;;;;;;4955569;29;20038;-89
2021/09/23 00:14:04;;;;;;;5.65;3.90;;;8.90;97.80;;;;;;4940748;29;20042;-89
2021/09/23 00:16:29;;;;;;;5.10;3.30;;;8.90;98.00;;;;;;4958781;29;20079;-89
2021/09/23 00:18:55;;;;;;;3.78;2.97;;;8.90;97.90;;;;;;4958831;29;20035;-89
2021/09/23 00:21:21;;;;;;;4.28;3.08;;;8.90;97.90;;;;;;4958931;29;20449;-89
2021/09/23 00:23:48;;;;;;;4.93;2.80;;;8.90;98.00;;;;;;4941484;29;20039;-90
2021/09/23 00:26:14;;;;;;;3.30;2.42;;;8.90;97.90;;;;;;4941655;29;20051;-89
2021/09/23 00:28:40;;;;;;;3.75;2.83;;;8.90;98.00;;;;;;4958880;29;20039;-89
2021/09/23 00:31:06;;;;;;;4.95;2.90;;;8.90;98.00;;;;;;4941391;29;20089;-89
2021/09/23 00:33:31;;;;;;;3.15;2.33;;;8.90;98.10;;;;;;4958318;29;20127;-89
2021/09/23 00:35:57;;;;;;;4.55;3.30;;;8.90;98.10;;;;;;4941194;29;20074;-89
2021/09/23 00:38:23;;;;;;;3.95;2.70;;;8.90;98.10;;;;;;4958202;29;20079;-89
2021/09/23 00:40:48;;;;;;;5.22;3.03;;;8.90;98.20;;;;;;4941860;29;20043;-89
2021/09/23 00:43:14;;;;;;;3.92;2.53;;;8.80;98.30;;;;;;4941155;29;20487;-89
2021/09/23 00:45:40;;;;;;;4.57;3.03;;;8.90;98.30;;;;;;4941456;29;20102;-89
2021/09/23 00:48:06;;;;;;;4.05;2.80;;;8.90;98.30;;;;;;4941073;29;20047;-89
2021/09/23 00:50:32;;;;;;;4.40;3.25;;;8.80;98.30;;;;;;4940594;29;20067;-89
2021/09/23 00:52:57;;;;;;;5.75;2.90;;;8.80;98.50;;;;;;4942117;29;20039;-89
2021/09/23 00:55:23;;;;;;;5.75;2.95;;;8.80;98.60;;;;;;4960694;29;20054;-89
2021/09/23 00:57:49;;;;;;;5.47;3.72;;;8.80;98.50;;;;;;4943250;29;20047;-89
2021/09/23 01:00:17;;;;;;;3.95;2.67;;;8.80;98.70;;;;;;4959379;29;20155;-89
2021/09/23 01:02:43;;;;;;;3.58;2.80;;;8.80;98.70;;;;;;4959687;29;20035;-89
2021/09/23 01:05:09;;;;;;;5.18;2.88;;;8.80;98.70;;;;;;4958103;29;20039;-89
2021/09/23 01:07:36;;;;;;;4.15;2.58;;;8.80;98.70;;;;;;4940307;29;20416;-89
2021/09/23 01:10:03;;;;;;;4.28;2.70;;;8.80;98.70;;;;;;4957930;29;20027;-89
2021/09/23 01:12:29;;;;;;;3.00;2.53;;;8.80;98.70;;;;;;4957715;29;20039;-89
2021/09/23 01:14:55;;;;;;;4.60;3.05;;;8.80;98.80;;;;;;4940655;29;20046;-89
2021/09/23 01:17:22;;;;;;;4.60;3.25;;;8.80;98.70;;;;;;4940607;29;20087;-88
2021/09/23 01:19:48;;;;;;;5.30;3.30;;;8.80;98.90;;;;;;4957594;29;20066;-89
2021/09/23 01:22:15;;;;;;;5.18;3.03;;;8.80;98.90;;;;;;4957796;29;20044;-89
2021/09/23 01:24:42;;;;;;;4.47;2.63;;;8.80;98.80;;;;;;4939930;29;20042;-89
2021/09/23 01:27:08;;;;;;;3.17;2.30;;;8.80;98.80;;;;;;4940697;29;20039;-89
2021/09/23 01:29:35;;;;;;;4.72;2.97;;;8.90;98.80;;;;;;4940663;29;20043;-89
2021/09/23 01:32:02;;;;;;;3.50;2.70;;;8.90;98.80;;;;;;4956326;29;20035;-89
2021/09/23 01:34:28;;;;;;;2.92;2.22;;;8.90;98.70;;;;;;4956189;29;20035;-89
2021/09/23 01:36:55;;;;;;;4.32;2.90;;;8.90;98.80;;;;;;4957524;29;20037;-89
2021/09/23 01:39:23;;;;;;;4.05;2.78;;;8.90;98.80;;;;;;4940143;29;20087;-89
2021/09/23 01:41:49;;;;;;;6.25;2.95;;;8.90;98.80;;;;;;4940230;29;20392;-89
2021/09/23 01:44:15;;;;;;;5.43;3.58;;;8.90;98.80;;;;;;4940092;29;20039;-89
2021/09/23 01:46:41;;;;;;;5.68;3.00;;;8.80;98.80;;;;;;4939805;29;20067;-89
2021/09/23 01:49:07;;;;;;;4.63;2.35;;;8.80;98.90;;;;;;4956868;29;20509;-89
2021/09/23 01:51:32;;;;;;;3.88;2.60;;;8.80;99.00;;;;;;4939797;29;20364;-89
2021/09/23 01:53:58;;;;;;;5.60;3.28;;;8.80;99.00;;;;;;4957046;29;20037;-89
2021/09/23 01:56:24;;;;;;;4.55;2.78;;;8.80;99.20;;;;;;4939538;29;20094;-89
2021/09/23 01:58:50;;;;;;;4.85;3.20;;;8.80;99.20;;;;;;4939978;29;20039;-89
2021/09/23 02:01:15;;;;;;;3.25;2.45;;;8.80;99.20;;;;;;4957456;29;20046;-89
2021/09/23 02:03:41;;;;;;;3.72;2.92;;;8.80;99.10;;;;;;4940947;29;20027;-89
2021/09/23 02:06:07;;;;;;;7.13;3.78;;;8.80;99.30;;;;;;4940702;29;20146;-89
2021/09/23 02:08:33;;;;;;;5.53;3.40;;;8.80;99.30;;;;;;4940968;29;20379;-89
2021/09/23 02:10:58;;;;;;;4.45;2.85;;;8.80;99.20;;;;;;4937803;29;20243;-89
2021/09/23 02:13:24;;;;;;;16.70;2.97;;;8.70;99.30;;;;;;4936372;29;20031;-89
2021/09/23 02:15:50;;;;;;;5.13;3.35;;;8.80;99.30;;;;;;4937375;29;20040;-89
2021/09/23 02:18:16;;;;;;;3.65;3.08;;;8.80;99.50;;;;;;4936297;29;20428;-89
2021/09/23 02:20:41;;;;;;;4.55;3.00;;;8.70;99.40;;;;;;4936889;29;20392;-89
2021/09/23 02:23:07;;;;;;;4.03;2.97;;;8.70;99.40;;;;;;4937735;29;20035;-89
2021/09/23 02:25:33;;;;;;;3.90;2.80;;;8.70;99.40;;;;;;4936334;29;20088;-89
2021/09/23 02:27:59;;;;;;;4.88;3.38;;;8.70;99.50;;;;;;4937015;29;20476;-89
2021/09/23 02:30:25;;;;;;;6.25;3.53;;;8.70;99.70;;;;;;4943452;29;20028;-87
2021/09/23 02:32:51;;;;;;;6.30;3.25;;;8.70;99.60;;;;;;4945510;29;20032;-89
2021/09/23 02:35:16;;;;;;;4.53;2.92;;;8.70;99.70;;;;;;4945300;29;20055;-88
2021/09/23 02:37:42;;;;;;;5.15;3.30;;;8.70;99.60;;;;;;4948702;29;20042;-89
2021/09/23 02:40:09;;;;;;;4.50;3.35;;;8.70;99.70;;;;;;4953332;29;20036;-89
2021/09/23 02:42:36;;;;;;;3.33;2.80;;;8.70;99.90;;;;;;4948917;29;20123;-89
2021/09/23 02:45:03;;;;;;;4.93;3.10;;;8.70;99.80;;;;;;4936822;29;20458;-89
2021/09/23 02:47:29;;;;;;;4.80;2.75;;;8.70;99.90;;;;;;4935654;29;20048;-89
2021/09/23 02:49:55;;;;;;;4.07;3.15;;;8.70;99.90;;;;;;4943489;29;20063;-89
2021/09/23 02:52:20;;;;;;;5.45;3.10;;;8.70;99.90;;;;;;4943578;29;20391;-89
2021/09/23 02:54:46;;;;;;;3.92;2.42;;;8.70;99.90;;;;;;4936272;29;20126;-88
2021/09/23 02:57:12;;;;;;;3.70;2.83;;;8.70;99.90;;;;;;4935960;29;20497;-89
2021/09/23 02:59:38;;;;;;;3.17;2.53;;;8.70;99.90;;;;;;4935537;29;20040;-89
2021/09/23 03:02:04;;;;;;;4.13;2.50;;;8.70;99.90;;;;;;4935607;29;20062;-89
2021/09/23 03:04:30;;;;;;;3.95;2.33;;;8.70;99.90;;;;;;4936565;29;20035;-89
2021/09/23 03:06:57;;;;;;;2.65;2.10;;;8.70;99.90;;;;;;4935334;29;20115;-89
2021/09/23 03:09:23;;;;;;;3.50;2.78;;;8.80;99.90;;;;;;4936957;29;20039;-89
2021/09/23 03:11:48;;;;;;;5.78;2.75;;;8.80;99.90;;;;;;4935655;29;20555;-89
2021/09/23 03:14:14;;;;;;;4.72;2.78;;;8.80;99.90;;;;;;4935639;29;20062;-89
2021/09/23 03:16:40;;;;;;;3.15;2.72;;;8.80;99.90;;;;;;4935235;29;20514;-89
2021/09/23 03:19:06;;;;;;;5.05;2.88;;;8.80;99.90;;;;;;4936860;29;20036;-89
2021/09/23 03:21:32;;;;;;;3.33;2.33;;;8.80;99.90;;;;;;4935350;29;20130;-88
2021/09/23 03:23:57;;;;;;;5.28;3.20;;;8.80;99.90;;;;;;4935241;29;20039;-88
2021/09/23 03:26:23;;;;;;;4.45;2.95;;;8.70;99.90;;;;;;4936486;29;20507;-89
2021/09/23 03:28:49;;;;;;;3.38;2.58;;;8.70;99.90;;;;;;4935376;29;20083;-89
2021/09/23 03:31:14;;;;;;;4.00;2.83;;;8.70;99.90;;;;;;4935012;29;20032;-88
2021/09/23 03:33:41;;;;;;;4.53;2.90;;;8.70;99.90;;;;;;4936778;29;20074;-89
2021/09/23 03:36:07;;;;;;;3.35;2.17;;;8.70;99.90;;;;;;4935352;29;20491;-88
2021/09/23 03:38:33;;;;;;;4.20;2.30;;;8.70;99.90;;;;;;4936429;29;20039;-88
2021/09/23 03:40:59;;;;;;;2.65;2.17;;;8.70;99.90;;;;;;4935013;29;20044;-89
2021/09/23 03:43:25;;;;;;;4.55;2.25;;;8.70;99.90;;;;;;4936329;29;20063;-89
2021/09/23 03:45:51;;;;;;;4.65;2.72;;;8.70;99.90;;;;;;4934877;29;20066;-89
2021/09/23 03:48:19;;;;;;;5.15;2.92;;;8.80;99.90;;;;;;4937992;29;20046;-89
2021/09/23 03:50:46;;;;;;;3.05;2.22;;;8.80;99.90;;;;;;4940009;29;20034;-89
2021/09/23 03:53:12;;;;;;;2.90;2.20;;;8.80;99.90;;;;;;4939081;29;20399;-89
2021/09/23 03:55:38;;;;;;;3.67;2.75;;;8.80;99.90;;;;;;4939954;29;20118;-88
2021/09/23 03:58:04;;;;;;;2.03;1.80;;;8.80;99.90;;;;;;4938611;29;20131;-89
2021/09/23 04:00:30;;;;;;;4.53;2.30;;;8.80;99.90;;;;;;4940054;29;20039;-89
2021/09/23 04:02:55;;;;;;;3.55;2.78;;;8.80;99.90;;;;;;4940106;29;20079;-89
2021/09/23 04:05:21;;;;;;;3.85;2.20;;;8.80;99.90;;;;;;4940683;29;20042;-89
2021/09/23 04:07:47;;;;;;;3.95;2.65;;;8.80;99.90;;;;;;4950817;29;20066;-88
2021/09/23 04:10:13;;;;;;;3.15;2.38;;;8.80;99.90;;;;;;4943406;29;20047;-89
2021/09/23 04:12:39;;;;;;;2.63;2.25;;;8.80;99.90;;;;;;4961834;29;20077;-88
2021/09/23 04:15:06;;;;;;;2.95;2.30;;;8.70;99.90;;;;;;4961812;29;20031;-88
2021/09/23 04:17:32;;;;;;;4.57;3.17;;;8.70;99.90;;;;;;4943793;29;20047;-89
2021/09/23 04:19:58;;;;;;;5.57;3.10;;;8.70;99.90;;;;;;4960085;29;20110;-89
2021/09/23 04:22:25;;;;;;;5.80;3.35;;;8.70;99.90;;;;;;4942685;29;20122;-89
2021/09/23 04:24:51;;;;;;;4.53;2.72;;;8.70;99.90;;;;;;4957402;29;20036;-88
2021/09/23 04:27:17;;;;;;;6.43;2.95;;;8.70;99.90;;;;;;4942283;29;20035;-89
2021/09/23 04:29:46;;;;;;;4.88;3.13;;;8.70;99.90;;;;;;4941596;29;20094;-88
2021/09/23 04:32:12;;;;;;;5.22;2.90;;;8.70;99.90;;;;;;4958698;29;20511;-89
2021/09/23 04:34:38;;;;;;;6.10;3.20;;;8.70;99.90;;;;;;4941640;29;20038;-89
2021/09/23 04:37:04;;;;;;;9.77;4.10;;;8.70;99.90;;;;;;4941834;29;20039;-89
2021/09/23 04:39:30;;;;;;;3.20;2.47;;;8.70;99.90;;;;;;4941649;29;20475;-88
2021/09/23 04:41:56;;;;;;;3.60;2.72;;;8.70;99.90;;;;;;4958237;29;20364;-89
2021/09/23 04:44:21;;;;;;;4.10;3.15;;;8.70;99.90;;;;;;4941577;29;20093;-89
2021/09/23 04:46:47;;;;;;;4.97;2.63;;;8.70;99.90;;;;;;4958521;29;20043;-88
2021/09/23 04:49:13;;;;;;;4.78;2.78;;;8.80;99.90;;;;;;4941073;29;20474;-88
2021/09/23 04:51:40;;;;;;;3.97;2.70;;;8.80;99.90;;;;;;4940793;29;20039;-89
2021/09/23 04:54:07;;;;;;;3.17;2.33;;;8.80;99.90;;;;;;4941049;29;20043;-89
2021/09/23 04:56:33;;;;;;;4.28;2.42;;;8.90;99.90;;;;;;4958191;29;20098;-89
2021/09/23 04:58:59;;;;;;;2.42;1.88;;;8.90;99.90;;;;;;4957633;28;20039;-90
2021/09/23 05:01:25;;;;;;;3.55;2.47;;;8.90;99.90;;;;;;4940588;29;20474;-89
2021/09/23 05:03:50;;;;;;;9.00;2.90;;;9.00;99.90;;;;;;4958962;29;20051;-89
2021/09/23 05:06:16;;;;;;;5.20;3.03;;;9.00;99.90;;;;;;4958183;29;20035;-89
2021/09/23 05:08:42;;;;;;;5.15;3.17;;;9.10;99.90;;;;;;4957683;29;20122;-88
2021/09/23 05:11:07;;;;;;;5.70;3.60;;;9.10;99.90;;;;;;4940449;29;20402;-88
2021/09/23 05:13:33;;;;;;;4.07;2.83;;;9.10;99.90;;;;;;4941073;29;20126;-89
2021/09/23 05:15:59;;;;;;;5.63;3.17;;;9.10;99.90;;;;;;4956084;28;20125;-89
2021/09/23 05:18:25;;;;;;;5.15;2.80;;;9.10;99.90;;;;;;4959791;28;20031;-89
2021/09/23 05:20:50;;;;;;;3.88;2.72;;;9.10;99.90;;;;;;4959561;28;20190;-89
2021/09/23 05:23:17;;;;;;;7.65;3.63;;;9.10;99.90;;;;;;4959480;28;20035;-90
2021/09/23 05:25:42;;;;;;;2.65;2.03;;;9.10;99.90;;;;;;4975772;28;20043;-90
2021/09/23 05:28:08;;;;;;;4.28;2.58;;;9.20;99.90;;;;;;4961695;28;20050;-89
2021/09/23 05:30:34;;;;;;;4.60;3.38;;;9.20;99.90;;;;;;4959928;28;20070;-90
2021/09/23 05:33:00;;;;;;;5.38;3.85;;;9.30;99.90;;;;;;4962364;28;20501;-89
2021/09/23 05:35:26;;;;;;;5.20;3.50;;;9.40;99.90;;;;;;4963961;28;20129;-89
2021/09/23 05:37:51;;;;;;;5.82;3.75;;;9.40;99.90;;;;;;4962397;28;20039;-89
2021/09/23 05:40:17;;;;;;;7.00;3.53;;;9.50;99.90;;;;;;4958202;28;20066;-89
2021/09/23 05:42:43;;;;;;;5.20;3.92;;;9.50;99.90;;;;;;4958714;28;20846;-89
2021/09/23 05:45:11;;;;;;;5.93;4.40;;;9.40;99.90;;;;;;4959765;28;20046;-90
2021/09/23 05:47:38;;;;;;;6.07;3.97;;;9.50;99.90;;;;;;4965474;28;20457;-90
2021/09/23 05:50:06;;;;;;;7.68;5.10;;;9.50;99.90;;;;;;4995032;28;20112;-90
2021/09/23 05:52:32;;;;;;;6.68;4.65;;;9.50;99.90;;;;;;4995568;28;20035;-90
2021/09/23 05:54:58;;;;;;;7.88;4.63;;;9.40;99.90;;;;;;4980449;28;20034;-90
2021/09/23 05:57:32;;;;;;;7.07;4.65;;;9.40;99.90;;;;;;4995396;28;20038;-90
2021/09/23 05:59:58;;;;;;;9.60;4.50;;;9.40;99.90;;;;;;4980384;28;20023;-90
2021/09/23 06:02:24;;;;;;;8.88;4.60;;;9.40;99.90;;;;;;4958250;28;20035;-90
2021/09/23 06:04:50;;;;;;;5.45;3.65;;;9.40;99.90;;;;;;4975531;28;20058;-91
2021/09/23 06:07:16;;;;;;;5.70;3.80;;;9.50;99.90;;;;;;4957923;28;20065;-90
2021/09/23 06:09:42;;;;;;;6.88;4.55;;;9.50;99.90;;;;;;4959457;28;20406;-90
2021/09/23 06:12:08;;;;;;;6.13;4.07;;;9.50;99.90;;;;;;4986830;28;20043;-91
2021/09/23 06:14:34;;;;;;;8.10;4.80;;;9.60;99.90;;;;;;4987067;28;20062;-90
2021/09/23 06:17:00;;;;;;;6.65;5.00;;;9.60;99.90;;;;;;4969972;28;20049;-90
2021/09/23 06:19:26;;;;;;;6.85;4.90;;;9.70;99.90;;;;;;4966832;28;20102;-90
2021/09/23 06:21:52;;;;;;;13.95;4.80;;;9.70;99.90;;;;;;4990979;28;20096;-90
2021/09/23 06:24:17;;;;;;;6.35;4.50;;;9.80;99.90;;;;;;4970693;28;20442;-91
2021/09/23 06:26:43;;;;;;;7.13;4.68;;;10.00;99.90;;;;;;4970692;28;20049;-91
2021/09/23 06:29:09;;;;;;;6.57;4.65;;;10.00;99.90;;;;;;4989755;28;20043;-90
2021/09/23 06:31:35;;;;;;;7.28;4.22;;;10.10;99.90;;;;;;4986890;28;20108;-90
2021/09/23 06:34:02;;;;;;;10.90;5.15;;;10.20;99.90;;;;;;4966539;28;20125;-90
2021/09/23 06:36:27;;;;;;;7.35;4.35;;;10.30;99.60;;;;;;4982730;28;20549;-90
2021/09/23 06:38:53;;;;;;;6.25;4.70;;;10.30;99.50;;;;;;4968449;28;20035;-90
2021/09/23 06:41:19;;;;;;;8.60;5.13;;;10.40;99.30;;;;;;4984298;28;20041;-89
2021/09/23 06:43:48;;;;;;;8.23;4.68;;;10.40;99.10;;;;;;4989001;28;20038;-90
2021/09/23 06:46:13;;;;;;;6.10;4.38;;;10.40;98.90;;;;;;4971590;28;20042;-90
2021/09/23 06:48:40;;;;;;;5.38;4.00;;;10.40;98.70;;;;;;4985955;28;20113;-89
2021/09/23 06:51:06;;;;;;;5.93;4.28;;;10.40;98.40;;;;;;4965422;28;20540;-89
2021/09/23 06:53:32;;;;;;;5.53;3.78;;;10.40;98.40;;;;;;4983693;28;20030;-90
2021/09/23 06:55:58;;;;;;;5.93;3.67;;;10.40;98.30;;;;;;4956138;28;20133;-90
2021/09/23 06:58:23;;;;;;;6.82;4.00;;;10.40;98.10;;;;;;4960010;28;20034;-92
2021/09/23 07:00:49;;;;;;;4.35;3.45;;;10.30;98.00;;;;;;4963811;28;20059;-92
2021/09/23 07:03:15;;;;;;;7.32;4.57;;;10.40;98.20;;;;;;4955245;28;20035;-92
2021/09/23 07:05:43;;;;;;;4.75;3.25;;;10.40;98.20;;;;;;4959469;28;20034;-90
2021/09/23 07:08:10;;;;;;;5.43;3.95;;;10.30;98.20;;;;;;4958228;28;20126;-90
2021/09/23 07:10:38;;;;;;;5.47;4.10;;;10.30;98.10;;;;;;4959009;28;20130;-94
2021/09/23 07:13:07;;;;;;;5.82;4.38;;;10.30;97.90;;;;;;4979573;28;20126;-93
2021/09/23 07:15:32;;;;;;;6.47;4.03;;;10.30;98.20;;;;;;4967570;28;20067;-92
2021/09/23 07:17:58;;;;;;;6.47;4.00;;;10.40;98.20;;;;;;4981214;28;20050;-92
2021/09/23 07:20:24;;;;;;;6.03;4.43;;;10.50;98.30;;;;;;4951814;28;20429;-91
2021/09/23 07:23:03;;;;;;;6.78;4.60;;;10.60;98.10;;;;;;4961151;28;20084;-90
2021/09/23 07:25:30;;;;;;;6.20;4.25;;;10.70;97.80;;;;;;4964267;28;20117;-91
2021/09/23 07:27:58;;;;;;;5.53;3.70;;;10.70;97.50;;;;;;4970491;28;20053;-91
2021/09/23 07:30:24;;;;;;;6.50;3.90;;;10.80;97.60;;;;;;4978802;28;20101;-91
2021/09/23 07:32:52;;;;;;;5.90;3.85;;;10.80;97.20;;;;;;4964117;28;20506;-92
2021/09/23 07:35:18;;;;;;;4.55;3.55;;;10.80;97.40;;;;;;4982640;28;20031;-89
2021/09/23 07:37:44;;;;;;;5.93;4.30;;;10.90;97.10;;;;;;4957269;28;20045;-91
2021/09/23 07:40:11;;;;;;;3.28;2.97;;;10.90;96.90;;;;;;4958543;28;20039;-91
2021/09/23 07:42:38;;;;;;;4.70;3.40;;;11.00;96.90;;;;;;4971462;28;20093;-90
2021/09/23 07:45:07;;;;;;;4.35;3.25;;;11.00;96.60;;;;;;4978042;28;20373;-91
2021/09/23 07:47:32;;;;;;;3.95;2.95;;;11.10;96.50;;;;;;4973207;28;20133;-91
2021/09/23 07:49:58;;;;;;;3.30;2.60;;;11.20;96.60;;;;;;4959457;28;20125;-90
2021/09/23 07:52:24;;;;;;;4.57;2.95;;;11.30;96.70;;;;;;4979793;28;20389;-91
2021/09/23 07:54:55;;;;;;;3.78;2.85;;;11.60;96.40;;;;;;4962015;28;20039;-91
2021/09/23 07:57:22;;;;;;;4.22;3.45;;;11.70;96.10;;;;;;4962149;28;20529;-89
2021/09/23 07:59:49;;;;;;;4.55;3.25;;;11.90;95.70;;;;;;4954705;28;20047;-92
2021/09/23 08:02:16;;;;;;;6.15;4.00;;;11.90;95.30;;;;;;4961135;28;20046;-92
2021/09/23 08:04:42;;;;;;;5.78;3.88;;;12.00;95.20;;;;;;4963209;28;20086;-93
2021/09/23 08:07:08;;;;;;;5.20;3.45;;;12.10;94.50;;;;;;4958891;28;20047;-94
2021/09/23 08:09:34;;;;;;;5.93;3.97;;;12.10;94.30;;;;;;4967661;28;20031;-94
2021/09/23 08:12:00;;;;;;;7.72;4.43;;;12.10;93.50;;;;;;4974465;28;20038;-91
2021/09/23 08:14:29;;;;;;;4.55;3.70;;;12.10;93.80;;;;;;4959957;28;20034;-92
2021/09/23 08:16:56;;;;;;;6.93;4.65;;;12.10;93.80;;;;;;4947992;28;20031;-91
2021/09/23 08:19:22;;;;;;;6.40;4.75;;;12.10;93.40;;;;;;4957534;28;20117;-89
2021/09/23 08:21:49;;;;;;;4.78;3.95;;;12.20;93.40;;;;;;4975244;28;20031;-91
2021/09/23 08:24:16;;;;;;;4.45;3.45;;;12.10;93.40;;;;;;4950998;28;20039;-90
2021/09/23 08:26:42;;;;;;;6.55;4.28;;;12.10;93.20;;;;;;4973613;28;20053;-91
2021/09/23 08:29:08;;;;;;;5.72;4.28;;;12.10;92.90;;;;;;4975079;28;20094;-93
2021/09/23 08:31:34;;;;;;;5.28;3.72;;;12.00;92.60;;;;;;4950479;28;20046;-92
2021/09/23 08:34:00;;;;;;;5.97;4.28;;;11.90;92.60;;;;;;4957457;28;20034;-91
2021/09/23 08:36:27;;;;;;;4.60;3.75;;;11.80;92.80;;;;;;4961886;28;20046;-94
2021/09/23 08:38:54;;;;;;;5.43;3.97;;;11.70;93.10;;;;;;4977307;28;20042;-93
2021/09/23 08:41:19;;;;;;;6.85;3.80;;;11.60;93.30;;;;;;4977743;28;20112;-93
2021/09/23 08:43:47;;;;;;;5.10;3.95;;;11.60;93.50;;;;;;4959646;28;20046;-91
2021/09/23 08:46:13;;;;;;;6.15;3.55;;;11.60;93.40;;;;;;4960414;28;20041;-93
2021/09/23 08:48:41;;;;;;;6.05;3.75;;;11.60;93.50;;;;;;4965026;28;20110;-92
2021/09/23 08:51:12;;;;;;;5.05;3.30;;;11.60;93.10;;;;;;4964800;28;20041;-92
2021/09/23 08:53:40;;;;;;;4.75;3.70;;;11.60;93.40;;;;;;4951224;28;20493;-91
2021/09/23 08:56:11;;;;;;;5.35;3.50;;;11.60;93.40;;;;;;4964306;28;20067;-91
2021/09/23 08:58:38;;;;;;;7.10;5.10;;;11.70;93.50;;;;;;4954444;28;20069;-91
2021/09/23 09:01:18;;;;;;;4.50;3.47;;;11.70;93.50;;;;;;4971046;28;20042;-92
2021/09/23 09:03:45;;;;;;;6.07;4.10;;;11.80;93.40;;;;;;4966461;28;20043;-90
2021/09/23 09:06:14;;;;;;;4.80;3.22;;;11.90;93.30;;;;;;4955940;28;20042;-90
2021/09/23 09:08:52;;;;;;;4.05;3.17;;;11.90;93.00;;;;;;4942676;28;20066;-91
2021/09/23 09:11:19;;;;;;;6.35;4.47;;;11.90;93.10;;;;;;4979428;28;20039;-91
2021/09/23 09:13:52;;;;;;;9.23;5.35;;;11.80;92.90;;;;;;4966878;28;20043;-91
2021/09/23 09:16:27;;;;;;;8.45;5.35;;;11.80;92.90;;;;;;4960703;28;20113;-90
2021/09/23 09:18:57;;;;;;;5.57;4.25;;;11.70;93.20;;;;;;4975558;28;20042;-93
2021/09/23 09:21:27;;;;;;;7.40;4.40;;;11.70;93.60;;;;;;4956488;28;20045;-91
2021/09/23 09:24:02;;;;;;;7.15;4.88;;;11.70;93.90;;;;;;4976348;28;20062;-91
2021/09/23 09:26:32;;;;;;;7.65;5.47;;;11.90;93.90;;;;;;4974188;28;20051;-92
2021/09/23 09:29:00;;;;;;;6.80;4.30;;;11.90;93.80;;;;;;4959134;28;20081;-93
2021/09/23 09:31:27;;;;;;;7.22;5.07;;;11.90;93.80;;;;;;4959242;28;20500;-91
2021/09/23 09:33:59;;;;;;;9.85;5.15;;;11.90;93.70;;;;;;4980738;28;20509;-92
2021/09/23 09:37:02;;;;;;;7.55;4.72;;;11.90;93.70;;;;;;4971193;28;20509;-92
2021/09/23 09:39:31;;;;;;;7.78;4.45;;;11.90;93.80;;;;;;4964177;28;20094;-93
2021/09/23 09:42:00;;;;;;;7.90;4.25;;;11.90;93.90;;;;;;4972059;28;20081;-93
2021/09/23 09:44:32;;;;;;;7.53;4.57;;;11.90;93.80;;;;;;4981645;28;20062;-92
2021/09/23 09:47:02;;;;;;;5.70;4.05;;;11.90;93.70;;;;;;4958630;28;20074;-91
2021/09/23 09:49:34;;;;;;;5.65;3.95;;;11.80;93.70;;;;;;4975552;28;20094;-93
2021/09/23 09:52:00;;;;;;;6.70;4.43;;;11.80;93.90;;;;;;4958752;28;20105;-92
2021/09/23 09:54:30;;;;;;;7.50;4.65;;;11.70;94.10;;;;;;4938478;28;20039;-93
2021/09/23 09:57:11;;;;;;;7.00;4.43;;;11.60;94.10;;;;;;4979277;28;20057;-94
2021/09/23 09:59:39;;;;;;;6.78;4.97;;;11.50;94.40;;;;;;4959899;28;20117;-92
2021/09/23 10:02:07;;;;;;;6.18;4.20;;;11.50;94.70;;;;;;4961403;28;20070;-94
2021/09/23 10:04:37;;;;;;;7.40;4.95;;;11.50;94.80;;;;;;4961731;28;20175;-91
2021/09/23 10:07:08;;;;;;;5.75;4.88;;;11.60;94.80;;;;;;4954050;28;20134;-90
2021/09/23 10:09:35;;;;;;;6.15;4.40;;;11.60;94.80;;;;;;4976830;28;20055;-90
2021/09/23 10:12:03;;;;;;;8.80;5.60;;;11.60;94.40;;;;;;4961427;28;20035;-90
2021/09/23 10:14:40;;;;;;;8.40;5.90;;;11.60;94.50;;;;;;4960898;28;20050;-90
2021/09/23 10:17:13;;;;;;;7.22;5.00;;;11.50;94.50;;;;;;4961727;28;20039;-90
2021/09/23 10:19:47;;;;;;;7.80;5.28;;;11.50;94.60;;;;;;4958641;28;20055;-91
2021/09/23 10:22:16;;;;;;;9.45;5.78;;;11.50;94.40;;;;;;4959200;28;20090;-92
2021/09/23 10:24:45;;;;;;;9.38;5.85;;;11.40;94.40;;;;;;4959104;28;20045;-91
2021/09/23 10:29:59;;;;;;;6.15;4.68;;;11.30;94.80;;;;;;4975584;28;20058;-92
2021/09/23 10:32:28;;;;;;;5.53;4.30;;;11.30;94.80;;;;;;4962439;28;20478;-94
2021/09/23 10:35:01;;;;;;;6.40;4.43;;;11.30;94.50;;;;;;4956104;28;20458;-92
2021/09/23 10:37:34;;;;;;;5.90;4.32;;;11.30;94.30;;;;;;4963100;28;20049;-92
2021/09/23 10:40:01;;;;;;;4.97;3.65;;;11.30;94.00;;;;;;4958518;28;20050;-92
2021/09/23 10:42:35;;;;;;;6.18;4.40;;;11.30;94.10;;;;;;4975674;28;20042;-92
2021/09/23 10:45:09;;;;;;;5.05;3.85;;;11.40;94.30;;;;;;4957448;28;20050;-92
2021/09/23 10:47:37;;;;;;;5.35;4.13;;;11.50;94.30;;;;;;4955957;28;20138;-93
2021/09/23 10:50:09;;;;;;;6.05;4.10;;;11.60;94.20;;;;;;4975438;28;20137;-94
2021/09/23 10:52:42;;;;;;;6.82;4.88;;;11.80;94.20;;;;;;4958990;28;20043;-95
2021/09/23 10:55:10;;;;;;;5.53;4.60;;;12.00;93.50;;;;;;4975929;28;20475;-93
2021/09/23 10:57:45;;;;;;;7.97;5.47;;;12.10;93.50;;;;;;4973846;28;20054;-93
2021/09/23 11:00:21;;;;;;;6.00;4.28;;;12.20;93.40;;;;;;4975255;28;20400;-93
2021/09/23 11:02:53;;;;;;;5.53;3.83;;;12.40;93.20;;;;;;4961448;28;20043;-94
2021/09/23 11:05:29;;;;;;;8.57;5.22;;;12.60;93.10;;;;;;4960432;28;20034;-93
2021/09/23 11:08:10;;;;;;;5.75;4.95;;;12.70;91.30;;;;;;4961975;28;20047;-93
2021/09/23 11:10:48;;;;;;;7.22;4.55;;;12.80;91.40;;;;;;4966352;28;20073;-93
2021/09/23 11:13:35;;;;;;;7.20;4.68;;;12.80;90.70;;;;;;4964164;28;20045;-93
2021/09/23 11:16:06;;;;;;;5.28;4.22;;;12.80;90.80;;;;;;4985419;28;20045;-92
2021/09/23 11:18:41;;;;;;;8.15;4.47;;;12.80;91.20;;;;;;4967212;28;20079;-94
2021/09/23 11:21:09;;;;;;;4.95;4.35;;;12.90;90.90;;;;;;4976613;28;20039;-93
2021/09/23 11:23:38;;;;;;;7.43;4.97;;;12.90;90.70;;;;;;4977032;28;20106;-92
2021/09/23 11:26:07;;;;;;;5.80;4.68;;;12.90;90.40;;;;;;4976481;28;20534;-94
2021/09/23 11:28:35;;;;;;;4.78;4.00;;;12.80;90.30;;;;;;4958387;28;20066;-92
2021/09/23 11:31:04;;;;;;;4.70;3.42;;;12.80;90.10;;;;;;4950657;28;20039;-93
2021/09/23 11:33:31;;;;;;;4.70;3.95;;;12.80;90.50;;;;;;4959162;28;20038;-91
2021/09/23 11:35:57;;;;;;;5.82;4.65;;;12.80;90.30;;;;;;4975559;28;20042;-92
2021/09/23 11:38:25;;;;;;;8.15;4.68;;;12.90;90.20;;;;;;4975726;28;20031;-93
2021/09/23 11:40:57;;;;;;;5.55;4.68;;;12.90;89.60;;;;;;4930387;28;20038;-93
2021/09/23 11:43:32;;;;;;;6.28;4.22;;;13.00;89.40;;;;;;4963530;28;20035;-93
2021/09/23 11:46:01;;;;;;;6.93;4.47;;;13.10;90.00;;;;;;4968652;28;20050;-92
2021/09/23 11:48:35;;;;;;;4.88;4.13;;;13.30;89.30;;;;;;4951384;28;20054;-92
2021/09/23 11:51:15;;;;;;;6.93;5.45;;;13.40;89.20;;;;;;4958914;28;20035;-91
2021/09/23 11:53:53;;;;;;;6.60;5.07;;;13.60;88.70;;;;;;4951338;28;20051;-91
2021/09/23 11:56:41;;;;;;;7.60;5.30;;;13.70;87.30;;;;;;4991896;28;20062;-92
2021/09/23 11:59:18;;;;;;;7.22;4.78;;;13.60;86.20;;;;;;4977674;28;20118;-92
2021/09/23 12:02:00;;;;;;;7.47;5.25;;;13.50;87.20;;;;;;4985573;28;20042;-93
2021/09/23 12:04:27;;;;;;;7.75;6.50;;;13.50;87.10;;;;;;4975788;28;20054;-92
2021/09/23 12:07:08;;;;;;;7.65;6.03;;;13.40;86.40;;;;;;4992990;28;20095;-93
2021/09/23 12:09:59;;;;;;;8.32;6.30;;;13.20;86.30;;;;;;4967781;28;20079;-95
2021/09/23 12:12:28;;;;;;;7.97;6.20;;;13.10;86.80;;;;;;4999003;28;20045;-93
2021/09/23 12:14:57;;;;;;;6.95;5.88;;;12.90;86.90;;;;;;4981723;28;20054;-92
2021/09/23 12:17:26;;;;;;;9.13;5.55;;;12.80;86.70;;;;;;4982873;28;20069;-93
2021/09/23 12:19:58;;;;;;;10.57;7.93;;;12.70;87.40;;;;;;4990581;28;20057;-93
2021/09/23 12:22:47;;;;;;;9.25;7.15;;;12.70;87.10;;;;;;4972327;28;20043;-92
2021/09/23 12:25:14;;;;;;;8.38;6.53;;;12.60;87.40;;;;;;4964917;28;20047;-94
2021/09/23 12:27:46;;;;;;;8.23;5.82;;;12.50;87.90;;;;;;4964017;28;20093;-95
2021/09/23 12:30:24;;;;;;;9.60;7.55;;;12.40;88.50;;;;;;4957863;28;20446;-93
2021/09/23 12:32:56;;;;;;;11.18;7.22;;;12.30;88.70;;;;;;4978606;28;20043;-92
2021/09/23 12:35:28;;;;;;;9.45;7.10;;;12.30;89.10;;;;;;4978181;28;20050;-93
2021/09/23 12:38:15;;;;;;;9.05;6.13;;;12.20;89.40;;;;;;4961264;28;20079;-94
2021/09/23 12:41:00;;;;;;;;;;;;;;;;;;;;;
2021/09/23 12:43:48;;;;;;;10.05;7.55;;;12.20;90.10;;;;;;4978603;28;20049;-93
2021/09/23 12:46:19;;;;;;;9.45;6.90;;;12.20;89.90;;;;;;4980210;28;20482;-94
2021/09/23 12:49:10;;;;;;;8.45;7.10;;;12.20;90.10;;;;;;4961504;28;20050;-93
2021/09/23 12:51:42;;;;;;;8.73;6.07;;;12.20;90.20;;;;;;4959579;28;20078;-93
2021/09/23 12:54:24;;;;;;;8.00;6.20;;;12.20;90.20;;;;;;4958644;28;20402;-93
2021/09/23 12:57:16;;;;;;;8.25;6.03;;;12.30;90.20;;;;;;4956531;28;20050;-93
2021/09/23 12:59:48;;;;;;;8.48;5.28;;;12.40;90.00;;;;;;4967627;28;20118;-92
2021/09/23 13:02:39;;;;;;;7.63;5.50;;;12.30;90.00;;;;;;4961419;28;20110;-93